createdAt,value
2022-10-13T00:00:46.112Z,14.45
2022-10-13T00:03:12.967Z,14.48
2022-10-13T00:05:44.530Z,15.00
2022-10-13T00:08:12.735Z,14.07
2022-10-13T00:10:40.769Z,13.75
2022-10-13T00:13:08.814Z,13.00
2022-10-13T00:15:46.142Z,12.82
2022-10-13T00:18:13.558Z,13.48
2022-10-13T00:20:49.406Z,14.18
2022-10-13T00:23:17.097Z,12.80
2022-10-13T00:25:45.931Z,13.60
2022-10-13T00:28:14.140Z,12.43
2022-10-13T00:30:41.592Z,12.68
2022-10-13T00:33:09.996Z,12.35
2022-10-13T00:35:46.168Z,11.93
2022-10-13T00:38:13.691Z,12.85
2022-10-13T00:40:47.980Z,12.05
2022-10-13T00:43:26.968Z,12.45
2022-10-13T00:45:54.421Z,12.33
2022-10-13T00:48:24.912Z,12.75
2022-10-13T00:50:52.468Z,12.50
2022-10-13T00:53:23.244Z,12.88
2022-10-13T00:55:52.664Z,13.07
2022-10-13T00:58:24.028Z,12.73
2022-10-13T01:00:53.144Z,13.48
2022-10-13T01:03:21.256Z,13.35
2022-10-13T01:05:48.682Z,13.25
2022-10-13T01:08:16.404Z,13.80
2022-10-13T01:11:07.524Z,13.43
2022-10-13T01:13:58.352Z,12.60
2022-10-13T01:16:35.768Z,12.52
2022-10-13T01:19:39.825Z,13.13
2022-10-13T01:22:25.184Z,13.20
2022-10-13T01:25:10.036Z,12.70
2022-10-13T01:27:59.812Z,12.82
2022-10-13T01:30:26.539Z,12.90
2022-10-13T01:33:09.682Z,12.77
2022-10-13T01:35:48.373Z,13.40
2022-10-13T01:38:33.568Z,13.90
2022-10-13T01:41:12.342Z,14.20
2022-10-13T01:43:58.783Z,13.60
2022-10-13T01:46:30.894Z,13.95
2022-10-13T01:49:01.996Z,14.05
2022-10-13T01:51:31.395Z,13.82
2022-10-13T01:53:58.065Z,14.25
2022-10-13T01:56:24.686Z,14.95
2022-10-13T01:58:53.969Z,14.10
2022-10-13T02:01:39.656Z,13.70
2022-10-13T02:04:06.219Z,14.45
2022-10-13T02:06:51.177Z,14.70
2022-10-13T02:09:46.044Z,15.00
2022-10-13T02:12:21.887Z,13.88
2022-10-13T02:14:50.944Z,14.30
2022-10-13T02:17:18.000Z,15.40
2022-10-13T02:19:45.165Z,14.65
2022-10-13T02:22:14.940Z,14.20
2022-10-13T02:24:41.979Z,14.32
2022-10-13T02:27:09.227Z,13.95
2022-10-13T02:29:49.637Z,14.25
2022-10-13T02:32:16.761Z,15.23
2022-10-13T02:34:43.676Z,14.95
2022-10-13T02:37:11.212Z,15.98
2022-10-13T02:39:37.895Z,14.82
2022-10-13T02:42:04.932Z,15.13
2022-10-13T02:44:31.959Z,15.32
2022-10-13T02:46:58.704Z,14.10
2022-10-13T02:49:25.371Z,14.98
2022-10-13T02:51:53.287Z,14.75
2022-10-13T02:54:20.051Z,14.70
2022-10-13T02:56:46.704Z,14.35
2022-10-13T02:59:13.476Z,15.15
2022-10-13T03:01:42.216Z,14.75
2022-10-13T03:04:09.233Z,15.35
2022-10-13T03:06:35.929Z,14.77
2022-10-13T03:09:02.936Z,14.70
2022-10-13T03:11:29.680Z,13.95
2022-10-13T03:13:56.296Z,14.55
2022-10-13T03:16:22.996Z,14.25
2022-10-13T03:18:49.654Z,13.45
2022-10-13T03:21:16.269Z,13.57
2022-10-13T03:23:42.952Z,14.75
2022-10-13T03:26:10.100Z,14.73
2022-10-13T03:28:36.753Z,14.82
2022-10-13T03:31:08.893Z,14.93
2022-10-13T03:33:35.564Z,14.73
2022-10-13T03:36:05.309Z,14.60
2022-10-13T03:38:34.339Z,14.68
2022-10-13T03:41:08.331Z,14.33
2022-10-13T03:43:35.515Z,14.75
2022-10-13T03:46:04.564Z,14.93
2022-10-13T03:48:31.759Z,14.07
2022-10-13T03:50:58.760Z,14.30
2022-10-13T03:53:26.251Z,14.02
2022-10-13T03:55:56.329Z,14.20
2022-10-13T03:58:24.604Z,13.88
2022-10-13T04:00:52.153Z,14.07
2022-10-13T04:03:18.781Z,14.88
2022-10-13T04:05:46.323Z,13.82
2022-10-13T04:08:13.562Z,14.40
2022-10-13T04:10:40.968Z,14.30
2022-10-13T04:13:08.326Z,14.38
2022-10-13T04:15:39.073Z,13.82
2022-10-13T04:18:07.513Z,13.05
2022-10-13T04:20:39.714Z,13.70
2022-10-13T04:23:07.330Z,13.20
2022-10-13T04:25:38.987Z,13.77
2022-10-13T04:28:07.127Z,13.63
2022-10-13T04:30:35.070Z,13.88
2022-10-13T04:33:01.789Z,13.48
2022-10-13T04:35:28.491Z,13.13
2022-10-13T04:37:57.460Z,13.07
2022-10-13T04:40:25.549Z,12.77
2022-10-13T04:42:52.451Z,13.27
2022-10-13T04:45:19.108Z,14.10
2022-10-13T04:47:45.784Z,12.57
2022-10-13T04:50:12.418Z,13.35
2022-10-13T04:52:39.061Z,13.52
2022-10-13T04:55:06.240Z,12.45
2022-10-13T04:57:32.967Z,13.13
2022-10-13T04:59:59.568Z,13.02
2022-10-13T05:02:26.165Z,12.90
2022-10-13T05:04:52.812Z,12.55
2022-10-13T05:07:19.454Z,12.95
2022-10-13T05:09:46.464Z,14.35
2022-10-13T05:12:13.144Z,12.93
2022-10-13T05:14:39.723Z,13.23
2022-10-13T05:17:06.330Z,12.90
2022-10-13T05:19:33.034Z,13.57
2022-10-13T05:21:59.667Z,13.43
2022-10-13T05:24:36.439Z,13.38
2022-10-13T05:27:11.046Z,13.15
2022-10-13T05:29:38.448Z,13.48
2022-10-13T05:32:05.700Z,12.90
2022-10-13T05:34:33.342Z,13.60
2022-10-13T05:37:00.811Z,13.43
2022-10-13T05:39:27.649Z,13.35
2022-10-13T05:41:54.313Z,12.82
2022-10-13T05:44:21.803Z,13.10
2022-10-13T05:46:48.494Z,12.85
2022-10-13T05:49:15.657Z,13.05
2022-10-13T05:51:47.138Z,13.40
2022-10-13T05:54:16.083Z,14.02
2022-10-13T05:56:54.199Z,13.10
2022-10-13T05:59:26.801Z,13.13
2022-10-13T06:01:54.575Z,13.43
2022-10-13T06:04:25.798Z,13.40
2022-10-13T06:06:52.734Z,13.40
2022-10-13T06:09:19.875Z,12.18
2022-10-13T06:11:46.489Z,12.32
2022-10-13T06:14:13.143Z,12.98
2022-10-13T06:16:41.077Z,12.10
2022-10-13T06:19:07.663Z,13.50
2022-10-13T06:21:35.670Z,12.40
2022-10-13T06:24:02.666Z,13.02
2022-10-13T06:26:29.248Z,12.48
2022-10-13T06:28:59.579Z,12.73
2022-10-13T06:31:26.532Z,12.13
2022-10-13T06:33:53.199Z,11.50
2022-10-13T06:36:19.920Z,12.50
2022-10-13T06:38:47.049Z,11.35
2022-10-13T06:41:14.394Z,10.88
2022-10-13T06:43:41.322Z,11.50
2022-10-13T06:46:08.506Z,10.82
2022-10-13T06:48:35.436Z,11.75
2022-10-13T06:51:06.786Z,10.77
2022-10-13T06:53:33.961Z,9.80
2022-10-13T06:56:01.918Z,10.60
2022-10-13T06:58:28.891Z,10.48
2022-10-13T07:00:55.838Z,10.30
2022-10-13T07:03:24.011Z,9.90
2022-10-13T07:05:50.663Z,10.27
2022-10-13T07:08:17.628Z,10.10
2022-10-13T07:10:44.234Z,9.93
2022-10-13T07:13:10.915Z,9.45
2022-10-13T07:15:39.395Z,9.40
2022-10-13T07:18:06.727Z,9.70
2022-10-13T07:20:34.011Z,9.40
2022-10-13T07:23:00.708Z,9.63
2022-10-13T07:25:27.587Z,9.13
2022-10-13T07:27:54.176Z,9.48
2022-10-13T07:30:20.865Z,9.35
2022-10-13T07:32:47.891Z,9.68
2022-10-13T07:35:14.526Z,8.63
2022-10-13T07:37:41.291Z,9.60
2022-10-13T07:40:08.873Z,8.80
2022-10-13T07:42:35.984Z,9.15
2022-10-13T07:45:03.088Z,8.73
2022-10-13T07:47:29.868Z,8.50
2022-10-13T07:49:56.512Z,8.40
2022-10-13T07:52:23.446Z,8.70
2022-10-13T07:54:50.851Z,7.97
2022-10-13T07:57:17.988Z,8.93
2022-10-13T07:59:44.672Z,8.88
2022-10-13T08:02:11.420Z,8.45
2022-10-13T08:04:38.386Z,8.85
2022-10-13T08:07:06.205Z,7.90
2022-10-13T08:09:33.263Z,8.05
2022-10-13T08:12:00.818Z,8.77
2022-10-13T08:14:29.020Z,8.15
2022-10-13T08:16:56.346Z,7.47
2022-10-13T08:19:26.296Z,7.18
2022-10-13T08:21:58.134Z,6.53
2022-10-13T08:24:26.789Z,7.35
2022-10-13T08:26:53.685Z,6.03
2022-10-13T08:29:23.056Z,6.65
2022-10-13T08:31:51.663Z,6.05
2022-10-13T08:34:18.687Z,7.88
2022-10-13T08:36:45.448Z,6.68
2022-10-13T08:39:12.866Z,6.38
2022-10-13T08:41:45.887Z,6.05
2022-10-13T08:47:44.343Z,5.65
2022-10-13T08:50:15.198Z,5.75
2022-10-13T08:52:49.866Z,6.47
2022-10-13T08:55:23.166Z,6.30
2022-10-13T08:57:50.038Z,6.30
2022-10-13T09:00:17.388Z,6.63
2022-10-13T09:02:45.031Z,7.20
2022-10-13T09:05:27.555Z,6.25
2022-10-13T09:07:56.780Z,6.28
2022-10-13T09:10:23.454Z,6.40
2022-10-13T09:12:51.582Z,6.75
2022-10-13T09:15:18.544Z,7.35
2022-10-13T09:17:45.764Z,6.70
2022-10-13T09:20:25.218Z,6.38
2022-10-13T09:23:04.368Z,6.38
2022-10-13T09:25:47.183Z,6.72
2022-10-13T09:28:19.849Z,6.28
2022-10-13T09:30:47.957Z,6.60
2022-10-13T09:33:19.260Z,7.10
2022-10-13T09:35:48.756Z,6.35
2022-10-13T09:38:20.072Z,6.85
2022-10-13T09:41:09.679Z,6.22
2022-10-13T09:43:42.281Z,6.65
2022-10-13T09:46:28.193Z,6.82
2022-10-13T09:48:59.341Z,6.68
2022-10-13T09:51:45.321Z,6.88
2022-10-13T09:54:39.042Z,8.57
2022-10-13T09:57:29.976Z,7.95
2022-10-13T10:00:18.414Z,7.28
2022-10-13T10:02:51.512Z,7.10
2022-10-13T10:05:24.593Z,7.47
2022-10-13T10:07:51.550Z,8.00
2022-10-13T10:10:31.204Z,7.60
2022-10-13T10:15:33.286Z,7.50
2022-10-13T10:18:08.909Z,7.35
2022-10-13T10:21:03.071Z,7.53
2022-10-13T10:23:41.547Z,7.65
2022-10-13T10:26:23.709Z,8.02
2022-10-13T10:29:14.887Z,7.25
2022-10-13T10:31:57.979Z,7.30
2022-10-13T10:34:37.481Z,7.95
2022-10-13T10:37:21.180Z,6.78
2022-10-13T10:40:08.808Z,7.35
2022-10-13T10:42:48.417Z,7.28
2022-10-13T10:45:22.149Z,7.82
2022-10-13T10:47:54.055Z,8.38
2022-10-13T10:50:22.045Z,7.55
2022-10-13T10:52:48.604Z,7.55
2022-10-13T10:55:29.822Z,8.00
2022-10-13T10:58:30.294Z,7.72
2022-10-13T11:01:06.031Z,8.77
2022-10-13T11:03:40.854Z,8.23
2022-10-13T11:06:37.593Z,7.82
2022-10-13T11:09:06.036Z,7.03
2022-10-13T11:11:38.988Z,8.15
2022-10-13T11:14:05.534Z,7.97
2022-10-13T11:16:40.757Z,8.05
2022-10-13T11:19:33.287Z,8.10
2022-10-13T11:21:59.914Z,7.68
2022-10-13T11:24:41.840Z,8.15
2022-10-13T11:27:08.428Z,8.50
2022-10-13T11:29:47.202Z,8.25
2022-10-13T11:32:46.234Z,8.10
2022-10-13T11:35:12.776Z,8.30
2022-10-13T11:37:42.089Z,7.65
2022-10-13T11:40:33.750Z,8.23
2022-10-13T11:43:33.769Z,8.23
2022-10-13T11:46:12.517Z,7.78
2022-10-13T11:48:50.094Z,8.10
2022-10-13T11:51:38.685Z,8.00
2022-10-13T11:54:36.592Z,8.00
2022-10-13T11:57:04.759Z,7.70
2022-10-13T11:59:35.028Z,7.88
2022-10-13T12:02:10.724Z,7.68
2022-10-13T12:04:41.546Z,7.40
2022-10-13T12:07:13.329Z,7.20
2022-10-13T12:09:54.490Z,7.45
2022-10-13T12:12:22.826Z,7.38
2022-10-13T12:14:53.409Z,7.50
2022-10-13T12:17:26.681Z,7.85
2022-10-13T12:19:56.278Z,7.05
2022-10-13T12:22:24.024Z,7.93
2022-10-13T12:25:02.565Z,7.60
2022-10-13T12:27:34.109Z,7.60
2022-10-13T12:30:02.019Z,7.18
2022-10-13T12:32:33.596Z,7.90
2022-10-13T12:35:23.872Z,8.07
2022-10-13T12:37:52.241Z,7.70
2022-10-13T12:40:19.377Z,7.72
2022-10-13T12:42:47.132Z,8.52
2022-10-13T12:45:23.323Z,7.50
2022-10-13T12:47:52.579Z,8.15
2022-10-13T12:50:25.367Z,7.80
2022-10-13T12:53:09.935Z,7.22
2022-10-13T12:55:50.672Z,8.40
2022-10-13T12:58:24.595Z,8.25
2022-10-13T13:01:12.694Z,7.53
2022-10-13T13:06:34.976Z,8.45
2022-10-13T13:09:19.823Z,7.50
2022-10-13T13:11:47.236Z,7.75
2022-10-13T13:14:37.445Z,7.55
2022-10-13T13:17:08.504Z,7.80
2022-10-13T13:19:36.403Z,7.78
2022-10-13T13:22:05.095Z,7.75
2022-10-13T13:24:39.979Z,7.60
2022-10-13T13:27:17.683Z,8.02
2022-10-13T13:29:45.738Z,7.78
2022-10-13T13:32:14.500Z,7.78
2022-10-13T13:34:41.423Z,9.97
2022-10-13T13:37:26.469Z,9.85
2022-10-13T13:39:53.319Z,8.57
2022-10-13T13:42:20.008Z,8.05
2022-10-13T13:44:46.742Z,8.43
2022-10-13T13:47:17.317Z,8.00
2022-10-13T13:49:44.268Z,8.38
2022-10-13T13:52:10.905Z,7.95
2022-10-13T13:54:37.505Z,8.25
2022-10-13T13:57:04.581Z,8.15
2022-10-13T13:59:31.653Z,8.90
2022-10-13T14:01:58.369Z,8.20
2022-10-13T14:04:25.034Z,8.63
2022-10-13T14:06:52.930Z,9.48
2022-10-13T14:09:19.566Z,9.98
2022-10-13T14:11:46.199Z,10.27
2022-10-13T14:14:13.101Z,9.40
2022-10-13T14:16:41.512Z,9.63
2022-10-13T14:19:10.190Z,10.88
2022-10-13T14:21:37.240Z,14.20
2022-10-13T14:24:04.651Z,13.05
2022-10-13T14:26:31.568Z,12.95
2022-10-13T14:28:58.477Z,11.57
2022-10-13T14:31:25.180Z,10.23
2022-10-13T14:33:54.310Z,10.70
2022-10-13T14:36:21.260Z,11.35
2022-10-13T14:38:47.870Z,15.80
2022-10-13T14:41:17.062Z,18.70
2022-10-13T14:43:44.235Z,17.67
2022-10-13T14:46:10.858Z,15.70
2022-10-13T14:48:37.775Z,12.98
2022-10-13T14:51:06.304Z,13.70
2022-10-13T14:53:34.728Z,11.23
2022-10-13T14:56:01.966Z,9.95
2022-10-13T14:58:28.699Z,10.15
2022-10-13T15:00:55.684Z,10.10
2022-10-13T15:03:27.747Z,9.50
2022-10-13T15:05:54.536Z,8.60
2022-10-13T15:08:21.171Z,8.65
2022-10-13T15:10:47.828Z,8.50
2022-10-13T15:13:14.460Z,8.63
2022-10-13T15:15:47.934Z,8.90
2022-10-13T15:18:14.605Z,9.10
2022-10-13T15:20:46.369Z,9.70
2022-10-13T15:23:14.587Z,12.02
2022-10-13T15:25:49.996Z,12.90
2022-10-13T15:28:16.944Z,15.10
2022-10-13T15:30:43.680Z,14.10
2022-10-13T15:33:10.306Z,15.95
2022-10-13T15:35:36.968Z,12.40
2022-10-13T15:38:03.555Z,13.55
2022-10-13T15:40:33.553Z,10.63
2022-10-13T15:43:00.824Z,12.10
2022-10-13T15:45:27.669Z,10.13
2022-10-13T15:47:54.343Z,9.57
2022-10-13T15:50:20.987Z,9.98
2022-10-13T15:52:47.639Z,9.50
2022-10-13T15:55:14.280Z,9.93
2022-10-13T15:57:40.981Z,9.20
2022-10-13T16:00:09.622Z,9.10
2022-10-13T16:02:36.355Z,10.25
2022-10-13T16:05:05.368Z,9.82
2022-10-13T16:07:32.477Z,10.15
2022-10-13T16:09:59.187Z,10.90
2022-10-13T16:12:27.547Z,12.02
2022-10-13T16:14:54.593Z,11.48
2022-10-13T16:17:21.286Z,11.82
2022-10-13T16:19:48.125Z,11.88
2022-10-13T16:22:15.070Z,10.95
2022-10-13T16:24:41.683Z,12.60
2022-10-13T16:27:08.519Z,14.38
2022-10-13T16:29:35.122Z,13.48
2022-10-13T16:32:01.733Z,12.65
2022-10-13T16:34:28.468Z,12.52
2022-10-13T16:36:55.151Z,11.75
2022-10-13T16:39:23.834Z,11.45
2022-10-13T16:41:51.616Z,10.80
2022-10-13T16:44:18.251Z,11.45
2022-10-13T16:46:45.275Z,11.75
2022-10-13T16:49:12.755Z,13.93
2022-10-13T16:51:39.402Z,17.67
2022-10-13T16:54:06.237Z,18.60
2022-10-13T16:56:33.494Z,15.35
2022-10-13T16:59:02.775Z,16.23
2022-10-13T17:01:30.925Z,16.35
2022-10-13T17:03:57.972Z,14.52
2022-10-13T17:06:27.483Z,14.88
2022-10-13T17:08:54.973Z,15.43
2022-10-13T17:11:24.796Z,14.40
2022-10-13T17:16:20.286Z,14.15
2022-10-13T17:18:46.953Z,15.20
2022-10-13T17:21:15.785Z,19.13
2022-10-13T17:23:48.098Z,18.02
2022-10-13T17:26:16.428Z,18.15
2022-10-13T17:28:43.163Z,19.77
2022-10-13T17:31:12.671Z,19.15
2022-10-13T17:33:40.682Z,17.33
2022-10-13T17:36:15.373Z,17.92
2022-10-13T17:38:43.179Z,17.80
2022-10-13T17:41:11.172Z,15.18
2022-10-13T17:43:39.235Z,14.45
2022-10-13T17:46:34.608Z,13.00
2022-10-13T17:51:23.443Z,11.82
2022-10-13T17:53:51.579Z,12.35
2022-10-13T17:56:21.584Z,12.55
2022-10-13T17:58:50.066Z,12.00
2022-10-13T18:01:19.871Z,11.65
2022-10-13T18:06:14.666Z,28.13
2022-10-13T18:08:41.624Z,19.65
2022-10-13T18:11:10.483Z,25.13
2022-10-13T18:13:37.521Z,30.10
2022-10-13T18:16:09.911Z,38.45
2022-10-13T18:18:37.692Z,31.33
2022-10-13T18:21:06.034Z,23.95
2022-10-13T18:23:34.775Z,20.83
2022-10-13T18:26:13.643Z,15.35
2022-10-13T18:28:43.349Z,15.60
2022-10-13T18:31:18.849Z,15.40
2022-10-13T18:33:46.092Z,13.20
2022-10-13T18:39:13.500Z,12.10
2022-10-13T18:41:41.116Z,13.05
2022-10-13T18:44:08.572Z,14.40
2022-10-13T18:46:37.558Z,13.32
2022-10-13T18:49:05.660Z,13.50
2022-10-13T18:51:36.118Z,13.68
2022-10-13T18:54:04.269Z,14.80
2022-10-13T18:56:32.404Z,13.27
2022-10-13T18:59:01.687Z,13.90
2022-10-13T19:01:30.855Z,14.38
2022-10-13T19:03:58.389Z,12.38
2022-10-13T19:06:27.271Z,12.85
2022-10-13T19:08:56.811Z,13.40
2022-10-13T19:11:24.881Z,12.45
2022-10-13T19:13:52.506Z,13.00
2022-10-13T19:16:21.876Z,13.25
2022-10-13T19:18:49.345Z,13.18
2022-10-13T19:21:17.396Z,13.77
2022-10-13T19:23:44.351Z,13.38
2022-10-13T19:26:26.215Z,14.40
2022-10-13T19:28:58.474Z,13.10
2022-10-13T19:31:27.202Z,14.10
2022-10-13T19:33:54.026Z,11.98
2022-10-13T19:36:33.666Z,13.35
2022-10-13T19:39:02.179Z,12.18
2022-10-13T19:41:31.172Z,13.27
2022-10-13T19:43:58.589Z,12.50
2022-10-13T19:46:25.236Z,12.25
2022-10-13T19:48:51.836Z,12.77
2022-10-13T19:51:18.629Z,12.45
2022-10-13T19:53:45.525Z,11.88
2022-10-13T19:56:23.819Z,13.90
2022-10-13T19:58:52.002Z,11.98
2022-10-13T20:01:19.443Z,12.32
2022-10-13T20:03:46.853Z,12.18
2022-10-13T20:06:13.924Z,13.68
2022-10-13T20:08:40.753Z,12.88
2022-10-13T20:11:24.114Z,12.02
2022-10-13T20:13:52.264Z,12.90
2022-10-13T20:16:23.434Z,12.10
2022-10-13T20:18:57.644Z,12.63
2022-10-13T20:21:25.940Z,12.55
2022-10-13T20:23:53.027Z,12.23
2022-10-13T20:26:20.556Z,12.65
2022-10-13T20:28:48.747Z,13.13
2022-10-13T20:31:18.107Z,12.13
2022-10-13T20:33:45.000Z,12.57
2022-10-13T20:36:14.353Z,12.88
2022-10-13T20:38:41.412Z,12.55
2022-10-13T20:41:15.689Z,12.55
2022-10-13T20:43:42.525Z,12.35
2022-10-13T20:46:09.608Z,12.10
2022-10-13T20:48:58.156Z,11.95
2022-10-13T20:51:25.966Z,11.50
2022-10-13T20:53:52.605Z,12.27
2022-10-13T20:56:21.913Z,12.68
2022-10-13T20:58:49.380Z,13.55
2022-10-13T21:01:19.362Z,13.20
2022-10-13T21:03:46.588Z,12.82
2022-10-13T21:06:14.711Z,14.20
2022-10-13T21:08:45.235Z,13.73
2022-10-13T21:11:14.425Z,12.85
2022-10-13T21:13:42.544Z,13.30
2022-10-13T21:16:11.880Z,14.00
2022-10-13T21:18:38.581Z,14.25
2022-10-13T21:21:10.187Z,15.15
2022-10-13T21:23:37.829Z,14.48
2022-10-13T21:26:06.527Z,13.50
2022-10-13T21:28:35.796Z,14.23
2022-10-13T21:31:03.557Z,13.45
2022-10-13T21:33:30.379Z,12.88
2022-10-13T21:35:57.360Z,13.23
2022-10-13T21:38:24.286Z,13.82
2022-10-13T21:40:54.022Z,14.27
2022-10-13T21:45:47.483Z,13.50
2022-10-13T21:48:14.094Z,14.45
2022-10-13T21:50:40.821Z,13.27
2022-10-13T21:53:07.462Z,13.80
2022-10-13T21:55:34.129Z,12.88
2022-10-13T21:58:05.337Z,14.60
2022-10-13T22:00:32.856Z,14.80
2022-10-13T22:02:59.550Z,14.23
2022-10-13T22:05:26.231Z,14.40
2022-10-13T22:07:53.563Z,14.25
2022-10-13T22:10:20.272Z,13.60
2022-10-13T22:12:46.911Z,13.68
2022-10-13T22:15:13.603Z,14.38
2022-10-13T22:17:40.197Z,14.25
2022-10-13T22:20:07.104Z,14.35
2022-10-13T22:22:33.780Z,14.07
2022-10-13T22:25:00.507Z,14.75
2022-10-13T22:27:27.097Z,14.45
2022-10-13T22:29:53.824Z,14.45
2022-10-13T22:32:20.440Z,14.43
2022-10-13T22:34:47.094Z,13.75
2022-10-13T22:37:13.693Z,14.10
2022-10-13T22:39:40.301Z,14.05
2022-10-13T22:42:06.969Z,15.15
2022-10-13T22:44:33.562Z,13.88
2022-10-13T22:47:00.151Z,14.30
2022-10-13T22:49:26.811Z,15.10
2022-10-13T22:51:53.428Z,15.45
2022-10-13T22:54:20.012Z,14.57
2022-10-13T22:56:46.604Z,14.88
2022-10-13T22:59:13.991Z,14.95
2022-10-13T23:01:40.649Z,14.80
2022-10-13T23:04:07.245Z,14.10
2022-10-13T23:06:35.579Z,13.88
2022-10-13T23:09:05.026Z,15.02
2022-10-13T23:11:31.674Z,14.48
2022-10-13T23:13:58.299Z,14.25
2022-10-13T23:16:26.419Z,14.75
2022-10-13T23:18:53.551Z,15.43
2022-10-13T23:21:22.340Z,16.05
2022-10-13T23:23:54.883Z,17.17
2022-10-13T23:26:21.482Z,14.88
2022-10-13T23:28:48.141Z,18.33
2022-10-13T23:31:16.794Z,17.25
2022-10-13T23:33:43.956Z,16.00
2022-10-13T23:36:15.887Z,13.63
2022-10-13T23:38:42.783Z,15.32
2022-10-13T23:41:12.386Z,16.08
2022-10-13T23:43:40.239Z,16.20
2022-10-13T23:46:08.002Z,15.13
2022-10-13T23:48:34.584Z,16.00
2022-10-13T23:51:24.852Z,17.17
2022-10-13T23:53:52.351Z,15.82
2022-10-13T23:56:19.483Z,16.65
2022-10-13T23:58:46.345Z,16.27
